Time;durP1;ratioP1;P1;durP2;ratioP2;P2;SDS_P1;SDS_P2;PMS_P1;PMS_P2;Temp;Humidity;BMP_temperature;BMP_pressure;BME280_temperature;BME280_humidity;BME280_pressure;Samples;Min_cycle;Max_cycle;Signal;HPM_P1;HPM_P2
2023/07/07 00:02:14;;;;;;;;;;;17.40;50.90;;;13.43;100.00;95702.00;4972247;28;20004;-47
2023/07/07 00:04:40;;;;;;;;;;;17.40;51.00;;;13.39;100.00;95699.09;4959537;28;19910;-51
2023/07/07 00:07:06;;;;;;;;;;;17.40;51.00;;;13.35;100.00;95700.72;4971769;28;19917;-48
2023/07/07 00:09:31;;;;;;;;;;;17.40;51.10;;;13.32;100.00;95697.81;4965354;28;19914;-49
2023/07/07 00:11:57;;;;;;;;;;;17.40;51.30;;;13.31;100.00;95697.00;4970253;28;19916;-47
2023/07/07 00:14:23;;;;;;;;;;;17.30;51.30;;;13.28;100.00;95699.44;4972546;28;19910;-46
2023/07/07 00:16:50;;;;;;;;;;;17.30;51.40;;;13.25;100.00;95695.44;4959606;28;19945;-49
2023/07/07 00:19:16;;;;;;;;;;;17.30;51.50;;;13.20;100.00;95701.59;4972106;28;19925;-46
2023/07/07 00:21:43;;;;;;;;;;;17.20;51.50;;;13.20;100.00;95701.59;4968377;28;19909;-48
2023/07/07 00:24:09;;;;;;;;;;;17.20;51.70;;;13.17;100.00;95714.72;4972380;28;19937;-49
2023/07/07 00:26:35;;;;;;;;;;;17.20;51.70;;;13.10;100.00;95709.69;4962162;28;20002;-47
2023/07/07 00:29:01;;;;;;;;;;;17.20;51.80;;;13.09;100.00;95713.44;4979741;28;19910;-47
2023/07/07 00:31:29;;;;;;;;;;;17.10;51.80;;;13.06;100.00;95713.19;4972328;28;19910;-48
2023/07/07 00:33:55;;;;;;;;;;;17.10;52.00;;;13.04;100.00;95716.16;4960803;28;19918;-52
2023/07/07 00:36:22;;;;;;;;;;;17.10;52.10;;;13.01;100.00;95714.03;4971810;28;19936;-47
2023/07/07 00:38:50;;;;;;;;;;;17.10;52.20;;;13.00;100.00;95714.28;4969884;28;19972;-47
2023/07/07 00:41:16;;;;;;;;;;;17.00;52.30;;;12.98;100.00;95713.78;4971798;28;19914;-48
2023/07/07 00:44:03;;;;;;;;;;;17.00;52.30;;;12.97;100.00;95720.97;4970573;28;19964;-46
2023/07/07 00:46:29;;;;;;;;;;;17.00;52.40;;;12.98;100.00;95725.28;4960379;28;20384;-48
2023/07/07 00:48:59;;;;;;;;;;;17.00;52.50;;;12.94;100.00;95727.69;4970843;28;19960;-50
2023/07/07 00:51:33;;;;;;;;;;;17.00;52.60;;;12.92;100.00;95723.69;4965349;28;19968;-47
2023/07/07 00:54:04;;;;;;;;;;;17.00;52.60;;;12.90;100.00;95717.81;4970106;28;20013;-47
2023/07/07 00:56:38;;;;;;;;;;;16.90;52.70;;;12.85;100.00;95721.34;4971105;28;19916;-49
2023/07/07 00:59:14;;;;;;;;;;;16.90;52.80;;;12.83;100.00;95728.81;4959228;28;19945;-48
2023/07/07 01:01:41;;;;;;;;;;;16.90;52.80;;;12.85;100.00;95724.00;4971668;28;20271;-49
2023/07/07 01:04:14;;;;;;;;;;;16.90;52.90;;;12.84;100.00;95721.59;4965582;28;19992;-48
2023/07/07 01:06:52;;;;;;;;;;;16.90;53.00;;;12.82;100.00;95721.88;4968039;28;19917;-47
2023/07/07 01:09:17;;;;;;;;;;;16.90;53.10;;;12.79;100.00;95726.97;4966739;28;19943;-47
2023/07/07 01:11:46;;;;;;;;;;;16.90;53.10;;;12.75;100.00;95737.41;4968607;28;20292;-47
2023/07/07 01:14:23;;;;;;;;;;;16.80;53.10;;;12.70;100.00;95732.88;4970809;28;19960;-47
2023/07/07 01:17:04;;;;;;;;;;;16.80;53.20;;;12.69;100.00;95727.81;4960247;28;19920;-47
2023/07/07 01:19:53;;;;;;;;;;;16.80;53.30;;;12.69;100.00;95733.16;4972167;28;20360;-48
2023/07/07 01:22:28;;;;;;;;;;;16.70;53.40;;;12.67;100.00;95730.75;4967739;28;19910;-47
2023/07/07 01:25:55;;;;;;;;;;;16.70;53.40;;;12.66;100.00;95731.84;4971567;28;19914;-47
2023/07/07 01:28:43;;;;;;;;;;;16.70;54.10;;;12.65;100.00;95734.78;4958862;28;19918;-49
2023/07/07 01:31:18;;;;;;;;;;;16.70;53.70;;;12.63;100.00;95732.38;4974382;28;19956;-53
2023/07/07 01:33:46;;;;;;;;;;;16.70;53.80;;;12.62;100.00;95727.31;4957606;28;19958;-50
2023/07/07 01:36:13;;;;;;;;;;;16.70;53.90;;;12.59;100.00;95725.97;4946204;28;19909;-48
2023/07/07 01:38:45;;;;;;;;;;;16.70;53.90;;;12.60;100.00;95724.91;4975367;28;19916;-48
2023/07/07 01:41:52;;;;;;;;;;;16.70;53.90;;;12.60;100.00;95732.13;4963365;28;19914;-48
2023/07/07 01:44:38;;;;;;;;;;;16.70;54.00;;;12.55;100.00;95724.13;4974157;28;19909;-49
2023/07/07 01:47:19;;;;;;;;;;;16.60;54.00;;;12.47;100.00;95731.66;4969435;28;19916;-48
2023/07/07 01:50:04;;;;;;;;;;;16.60;54.00;;;12.49;100.00;95731.34;4974014;28;19979;-54
2023/07/07 01:52:46;;;;;;;;;;;16.60;54.00;;;12.46;100.00;95729.22;4965603;28;20476;-48
2023/07/07 01:55:23;;;;;;;;;;;16.60;54.10;;;12.40;100.00;95730.31;4973587;28;19910;-52
2023/07/07 01:57:56;;;;;;;;;;;16.50;54.10;;;12.39;100.00;95734.88;4956816;28;19910;-48
2023/07/07 02:00:25;;;;;;;;;;;16.50;54.20;;;12.40;100.00;95730.31;4968186;28;19914;-50
2023/07/07 02:02:53;;;;;;;;;;;16.50;54.20;;;12.38;100.00;95729.78;4973456;28;19910;-51
2023/07/07 02:05:19;;;;;;;;;;;16.50;54.30;;;12.33;100.00;95735.94;4973519;28;19972;-51
2023/07/07 02:07:44;;;;;;;;;;;16.50;54.30;;;12.33;100.00;95737.81;4974759;28;19913;-53
2023/07/07 02:10:11;;;;;;;;;;;16.50;54.30;;;12.32;100.00;95738.91;4963943;28;19997;-52
2023/07/07 02:12:37;;;;;;;;;;;16.40;54.40;;;12.31;100.00;95735.41;4965251;28;19972;-51
2023/07/07 02:15:04;;;;;;;;;;;16.40;54.50;;;12.27;100.00;95740.50;4971291;28;20388;-55
2023/07/07 02:17:30;;;;;;;;;;;16.40;54.50;;;12.25;100.00;95737.31;4965976;28;19914;-50
2023/07/07 02:19:59;;;;;;;;;;;16.40;54.60;;;12.23;100.00;95736.78;4974423;28;19920;-54
2023/07/07 02:22:25;;;;;;;;;;;16.40;54.70;;;12.26;100.00;95741.59;4970218;28;19918;-51
2023/07/07 02:24:52;;;;;;;;;;;16.40;54.80;;;12.26;100.00;95746.13;4974321;28;20376;-53
2023/07/07 02:27:18;;;;;;;;;;;16.40;54.80;;;12.25;100.00;95736.50;4957509;28;19941;-50
2023/07/07 02:29:44;;;;;;;;;;;16.40;54.90;;;12.25;100.00;95740.00;4973310;28;20343;-51
2023/07/07 02:32:10;;;;;;;;;;;16.40;54.90;;;12.23;100.00;95741.31;4973947;28;19909;-49
2023/07/07 02:34:36;;;;;;;;;;;16.40;54.90;;;12.24;100.00;95742.91;4963706;28;20415;-51
2023/07/07 02:37:02;;;;;;;;;;;16.40;54.90;;;12.20;100.00;95744.53;4974357;28;19909;-51
2023/07/07 02:39:28;;;;;;;;;;;16.40;54.90;;;12.09;100.00;95745.63;4966769;28;19914;-53
2023/07/07 02:41:54;;;;;;;;;;;16.30;54.80;;;12.12;100.00;95747.75;4965490;28;19914;-49
2023/07/07 02:44:21;;;;;;;;;;;16.30;54.90;;;12.12;100.00;95751.22;4973992;28;19914;-54
2023/07/07 02:46:46;;;;;;;;;;;16.30;55.60;;;12.14;100.00;95750.97;4968340;28;19952;-51
2023/07/07 02:49:12;;;;;;;;;;;16.30;55.00;;;12.14;100.00;95750.97;4973993;28;19941;-51
2023/07/07 02:51:38;;;;;;;;;;;16.30;55.00;;;12.13;100.00;95752.03;4965074;28;20009;-54
2023/07/07 02:54:06;;;;;;;;;;;16.20;55.00;;;12.12;100.00;95751.22;4972742;28;19910;-52
2023/07/07 02:56:31;;;;;;;;;;;16.20;55.10;;;12.09;100.00;95751.75;4973834;28;20004;-50
2023/07/07 02:58:57;;;;;;;;;;;16.20;55.20;;;12.07;100.00;95753.91;4959937;28;20011;-53
2023/07/07 03:01:23;;;;;;;;;;;16.20;55.20;;;12.04;100.00;95752.56;4973977;28;19909;-55
2023/07/07 03:03:51;;;;;;;;;;;16.20;55.20;;;12.02;100.00;95753.91;4968884;28;19910;-52
2023/07/07 03:06:21;;;;;;;;;;;16.20;55.30;;;11.98;100.00;95752.84;4973588;28;19909;-54
2023/07/07 03:08:48;;;;;;;;;;;16.20;55.40;;;11.97;100.00;95749.38;4970911;28;19941;-52
2023/07/07 03:11:18;;;;;;;;;;;16.10;55.40;;;11.98;100.00;95742.16;4949845;28;19949;-49
2023/07/07 03:13:47;;;;;;;;;;;16.10;55.40;;;11.98;100.00;95750.19;4973206;28;20021;-53
2023/07/07 03:16:23;;;;;;;;;;;16.10;55.50;;;11.97;100.00;95748.56;4961969;28;19917;-54
2023/07/07 03:18:55;;;;;;;;;;;16.10;55.50;;;11.95;100.00;95746.19;4973449;28;19909;-55
2023/07/07 03:21:22;;;;;;;;;;;16.10;55.50;;;11.93;100.00;95744.84;4970993;28;19921;-49
2023/07/07 03:23:54;;;;;;;;;;;16.10;55.50;;;11.90;100.00;95750.72;4972856;28;19952;-51
2023/07/07 03:26:23;;;;;;;;;;;16.10;55.50;;;11.88;100.00;95753.66;4965394;28;19918;-55
2023/07/07 03:28:49;;;;;;;;;;;16.10;55.60;;;11.87;100.00;95757.38;4963934;28;20372;-53
2023/07/07 03:31:28;;;;;;;;;;;16.00;55.60;;;11.86;100.00;95758.47;4973175;28;20364;-50
2023/07/07 03:33:59;;;;;;;;;;;16.00;55.60;;;11.82;100.00;95757.38;4963962;28;20432;-49
2023/07/07 03:36:30;;;;;;;;;;;16.00;55.60;;;11.81;100.00;95755.75;4948391;28;20446;-51
2023/07/07 03:38:56;;;;;;;;;;;16.00;55.70;;;11.80;100.00;95764.84;4970454;28;20004;-51
2023/07/07 03:41:28;;;;;;;;;;;16.00;55.80;;;11.77;100.00;95760.81;4961470;28;20352;-50
2023/07/07 03:43:55;;;;;;;;;;;16.00;55.80;;;11.76;100.00;95769.13;4973281;28;19948;-49
2023/07/07 03:46:24;;;;;;;;;;;16.00;55.80;;;11.74;100.00;95764.03;4968230;28;19910;-50
2023/07/07 03:48:53;;;;;;;;;;;15.90;55.70;;;11.76;100.00;95763.78;4972869;28;19910;-51
2023/07/07 03:51:21;;;;;;;;;;;16.00;55.90;;;11.79;100.00;95766.72;4964045;28;19911;-55
2023/07/07 03:53:49;;;;;;;;;;;16.00;56.00;;;11.84;100.00;95773.09;4964764;28;19953;-54
2023/07/07 03:56:17;;;;;;;;;;;16.00;56.00;;;11.84;100.00;95763.22;4972481;28;20020;-55
2023/07/07 03:58:43;;;;;;;;;;;16.00;56.00;;;11.85;100.00;95772.09;4960514;28;19910;-55
2023/07/07 04:01:14;;;;;;;;;;;16.10;56.00;;;11.85;100.00;95770.22;4971480;28;19920;-54
2023/07/07 04:03:42;;;;;;;;;;;16.10;56.00;;;11.85;100.00;95775.56;4968796;28;19949;-55
2023/07/07 04:06:08;;;;;;;;;;;16.10;56.00;;;11.85;100.00;95778.22;4972885;28;19964;-48
2023/07/07 04:08:34;;;;;;;;;;;16.10;56.00;;;11.85;100.00;95780.88;4971438;28;20012;-51
2023/07/07 04:11:08;;;;;;;;;;;16.10;56.00;;;11.84;100.00;95773.91;4957621;28;20008;-48
2023/07/07 04:13:38;;;;;;;;;;;16.10;56.00;;;11.87;100.00;95767.25;4971604;28;19932;-51
2023/07/07 04:16:08;;;;;;;;;;;16.10;56.00;;;11.88;100.00;95769.69;4953213;28;19965;-49
2023/07/07 04:18:36;;;;;;;;;;;16.20;56.10;;;11.86;100.00;95755.78;4947344;28;20200;-49
2023/07/07 04:21:06;;;;;;;;;;;16.20;56.10;;;11.98;100.00;95761.66;4969196;28;19960;-55
2023/07/07 04:23:40;;;;;;;;;;;16.20;56.10;;;12.20;100.00;95760.56;4972213;28;19916;-51
2023/07/07 04:26:09;;;;;;;;;;;16.30;56.20;;;12.33;100.00;95762.66;4966213;28;19949;-52
2023/07/07 04:28:36;;;;;;;;;;;16.40;56.30;;;12.42;100.00;95763.72;4959678;28;20008;-51
2023/07/07 04:31:06;;;;;;;;;;;16.40;56.20;;;12.61;100.00;95765.78;4972662;28;19910;-50
2023/07/07 04:33:33;;;;;;;;;;;16.50;56.30;;;12.87;100.00;95763.81;4964753;28;19932;-52
2023/07/07 04:36:02;;;;;;;;;;;16.60;56.30;;;13.12;100.00;95769.03;4969333;28;19910;-48
2023/07/07 04:38:33;;;;;;;;;;;16.80;56.30;;;13.37;100.00;95773.47;4972353;28;19909;-49
2023/07/07 04:41:11;;;;;;;;;;;17.00;56.30;;;13.62;100.00;95772.50;4958157;28;19924;-52
2023/07/07 04:43:41;;;;;;;;;;;17.20;56.30;;;13.87;100.00;95781.41;4971945;28;19936;-52
2023/07/07 04:46:10;;;;;;;;;;;17.40;56.20;;;14.12;100.00;95781.19;4967164;28;20474;-50
2023/07/07 04:48:36;;;;;;;;;;;17.60;56.20;;;14.38;99.82;95793.56;4972098;28;19976;-51
2023/07/07 04:51:06;;;;;;;;;;;17.90;56.10;;;14.62;97.74;95786.38;4967778;28;19969;-49
2023/07/07 04:53:32;;;;;;;;;;;18.10;56.00;;;14.89;97.47;95793.84;4962316;28;20001;-49
2023/07/07 04:56:00;;;;;;;;;;;18.30;55.80;;;15.06;95.11;95790.69;4972199;28;20004;-52
2023/07/07 04:58:27;;;;;;;;;;;18.60;55.70;;;15.20;93.89;95788.91;4948020;28;19911;-51
2023/07/07 05:01:07;;;;;;;;;;;18.80;55.50;;;15.42;93.63;95795.59;4972038;28;20032;-49
2023/07/07 05:03:34;;;;;;;;;;;19.00;55.30;;;15.61;94.18;95795.59;4967218;28;20459;-53
2023/07/07 05:06:02;;;;;;;;;;;19.30;55.30;;;15.85;91.88;95798.19;4974707;28;19960;-50
2023/07/07 05:08:47;;;;;;;;;;;19.60;55.10;;;16.11;90.69;95799.41;4975916;28;20265;-51
2023/07/07 05:11:17;;;;;;;;;;;19.80;54.90;;;16.41;87.16;95808.03;4954678;28;20304;-51
2023/07/07 05:13:46;;;;;;;;;;;20.10;54.70;;;16.63;85.62;95807.34;4975785;28;19988;-50
2023/07/07 05:16:19;;;;;;;;;;;20.40;54.50;;;16.88;85.52;95811.50;4965450;28;20285;-49
2023/07/07 05:18:45;;;;;;;;;;;20.70;54.30;;;17.11;83.77;95809.72;4975864;28;20334;-53
2023/07/07 05:21:14;;;;;;;;;;;20.90;54.10;;;17.22;80.16;95815.66;4971881;28;19948;-55
2023/07/07 05:23:40;;;;;;;;;;;21.20;53.80;;;17.24;79.07;95821.56;4964534;28;19909;-49
2023/07/07 05:26:07;;;;;;;;;;;21.50;53.50;;;17.34;78.97;95822.13;4970071;28;20447;-50
2023/07/07 05:28:33;;;;;;;;;;;21.70;53.20;;;17.48;78.36;95829.38;4959688;28;20361;-53
2023/07/07 05:30:59;;;;;;;;;;;21.90;52.90;;;17.72;77.81;95827.22;4953580;28;20024;-51
2023/07/07 05:33:28;;;;;;;;;;;22.10;52.70;;;17.99;76.13;95821.00;4951169;28;20358;-52
2023/07/07 05:35:59;;;;;;;;;;;22.30;52.60;;;18.17;74.76;95827.28;4968487;28;20355;-48
2023/07/07 05:38:27;;;;;;;;;;;22.60;52.40;;;18.46;75.23;95824.16;4974141;28;20009;-55
2023/07/07 05:40:53;;;;;;;;;;;22.90;52.10;;;18.71;74.51;95835.41;4950556;28;19926;-50
2023/07/07 05:43:21;;;;;;;;;;;23.20;52.00;;;18.99;73.85;95832.50;4953819;28;19910;-50
2023/07/07 05:45:54;;;;;;;;;;;23.50;51.70;;;19.12;72.70;95829.72;4968395;28;19914;-52
2023/07/07 05:48:20;;;;;;;;;;;23.70;51.40;;;19.37;71.02;95824.72;4970692;28;20377;-48
2023/07/07 05:50:45;;;;;;;;;;;24.00;51.00;;;19.59;69.21;95827.28;4965169;28;19925;-49
2023/07/07 05:53:11;;;;;;;;;;;24.30;50.80;;;19.87;68.04;95822.41;4950271;28;19910;-50
2023/07/07 05:55:38;;;;;;;;;;;24.60;50.50;;;20.01;67.41;95827.66;4962616;28;20286;-53
2023/07/07 05:58:05;;;;;;;;;;;24.90;50.20;;;20.11;66.24;95830.03;4964790;28;19993;-51
2023/07/07 06:00:34;;;;;;;;;;;25.10;49.80;;;20.31;66.13;95830.50;4990734;28;19924;-52
2023/07/07 06:02:59;;;;;;;;;;;25.30;49.50;;;20.63;66.44;95837.31;4974086;28;19916;-52
2023/07/07 06:05:29;;;;;;;;;;;25.60;49.30;;;20.94;64.33;95839.75;4967027;28;19910;-55
2023/07/07 06:07:55;;;;;;;;;;;25.80;49.00;;;21.21;63.22;95835.78;4975206;28;19931;-52
2023/07/07 06:10:24;;;;;;;;;;;26.00;48.70;;;21.46;62.43;95833.31;4963577;28;19914;-51
2023/07/07 06:12:51;;;;;;;;;;;26.30;48.50;;;21.60;60.80;95835.78;4975295;28;19910;-51
2023/07/07 06:15:19;;;;;;;;;;;26.50;48.20;;;21.73;59.45;95834.72;4967892;28;19921;-53
2023/07/07 06:17:45;;;;;;;;;;;26.70;47.90;;;21.92;58.87;95837.78;4949871;28;19914;-52
2023/07/07 06:20:13;;;;;;;;;;;26.80;47.60;;;21.93;58.61;95838.56;4975244;28;19940;-55
2023/07/07 06:22:39;;;;;;;;;;;27.00;47.30;;;22.13;58.16;95834.28;4964301;28;19910;-53
2023/07/07 06:25:05;;;;;;;;;;;27.10;47.10;;;22.21;58.81;95821.78;4955735;28;20365;-51
2023/07/07 06:27:31;;;;;;;;;;;27.30;46.90;;;22.32;57.42;95823.75;4968215;28;20310;-51
2023/07/07 06:29:57;;;;;;;;;;;27.50;46.70;;;22.35;57.21;95828.50;4968807;28;19910;-53
2023/07/07 06:32:23;;;;;;;;;;;27.60;46.40;;;22.36;57.12;95823.88;4975259;28;20439;-55
2023/07/07 06:34:49;;;;;;;;;;;27.70;46.20;;;22.51;56.40;95830.59;4971312;28;19917;-55
2023/07/07 06:37:16;;;;;;;;;;;27.80;45.90;;;22.56;56.39;95836.63;4973915;28;19914;-54
2023/07/07 06:39:41;;;;;;;;;;;27.90;45.60;;;22.58;55.73;95830.84;4967391;28;19917;-52
2023/07/07 06:42:09;;;;;;;;;;;28.00;45.40;;;22.57;55.16;95829.25;4963724;28;19916;-54
2023/07/07 06:44:40;;;;;;;;;;;28.20;45.20;;;22.60;55.78;95829.38;4975108;28;20394;-53
2023/07/07 06:47:13;;;;;;;;;;;28.20;44.90;;;22.78;55.63;95840.84;4963125;28;20383;-53
2023/07/07 06:49:39;;;;;;;;;;;28.40;44.70;;;22.96;54.20;95836.03;4964994;28;19916;-56
2023/07/07 06:52:05;;;;;;;;;;;28.50;44.50;;;23.12;53.87;95835.38;4965479;28;19913;-56
2023/07/07 06:54:31;;;;;;;;;;;28.60;44.30;;;23.39;52.54;95837.41;4975284;28;20000;-57
2023/07/07 06:56:57;;;;;;;;;;;28.80;44.10;;;23.43;52.76;95832.88;4956058;28;20032;-51
2023/07/07 06:59:22;;;;;;;;;;;28.90;44.40;;;23.69;52.54;95832.56;4965139;28;19917;-54
2023/07/07 07:01:48;;;;;;;;;;;29.10;43.70;;;23.88;51.80;95829.22;4974694;28;19910;-55
2023/07/07 07:04:14;;;;;;;;;;;29.20;43.50;;;24.16;51.50;95845.59;4964208;28;19917;-55
2023/07/07 07:06:43;;;;;;;;;;;29.50;43.40;;;24.20;49.94;95851.91;4971145;28;19909;-54
2023/07/07 07:09:10;;;;;;;;;;;29.70;43.00;;;24.40;50.03;95849.34;4971368;28;19910;-53
2023/07/07 07:11:36;;;;;;;;;;;29.90;42.70;;;24.64;48.83;95860.16;4962300;28;19910;-56
2023/07/07 07:14:02;;;;;;;;;;;30.20;42.60;;;24.95;47.84;95858.63;4989349;28;19910;-53
2023/07/07 07:16:28;;;;;;;;;;;30.40;42.30;;;25.11;46.42;95859.41;4959165;28;19921;-52
2023/07/07 07:18:53;;;;;;;;;;;30.60;42.10;;;25.46;46.79;95866.13;4964795;28;20319;-56
2023/07/07 07:21:20;;;;;;;;;;;30.90;41.80;;;25.71;45.84;95856.56;4970285;28;19981;-50
2023/07/07 07:23:46;;;;;;;;;;;31.20;41.60;;;26.03;45.29;95854.56;4956110;28;20266;-57
2023/07/07 07:26:12;;;;;;;;;;;31.40;41.30;;;26.28;43.37;95852.34;4970275;28;20004;-48
2023/07/07 07:28:37;;;;;;;;;;;31.60;41.00;;;26.37;44.02;95849.41;4968691;28;20273;-48
2023/07/07 07:31:03;;;;;;;;;;;31.90;40.70;;;26.43;43.40;95853.44;4974170;28;19953;-50
2023/07/07 07:33:29;;;;;;;;;;;32.20;40.40;;;26.69;42.80;95852.78;4968567;28;20288;-47
2023/07/07 07:35:54;;;;;;;;;;;32.40;40.10;;;27.03;42.68;95849.50;4970481;28;20392;-48
2023/07/07 07:38:21;;;;;;;;;;;32.70;39.80;;;27.21;42.38;95856.88;4974266;28;19909;-48
2023/07/07 07:40:50;;;;;;;;;;;32.90;39.50;;;27.48;41.35;95869.78;4960780;28;20390;-51
2023/07/07 07:43:15;;;;;;;;;;;33.30;39.40;;;27.54;40.96;95863.63;4973121;28;19910;-49
2023/07/07 07:45:41;;;;;;;;;;;33.50;38.90;;;27.71;38.45;95867.03;4968766;28;19917;-50
2023/07/07 07:48:07;;;;;;;;;;;33.80;38.70;;;28.03;38.56;95862.03;4967950;28;20555;-49
2023/07/07 07:50:33;;;;;;;;;;;34.00;38.30;;;28.34;38.92;95855.38;4963581;28;20004;-48
2023/07/07 07:52:59;;;;;;;;;;;34.30;38.00;;;28.45;39.35;95853.56;4957022;28;19917;-49
2023/07/07 07:55:26;;;;;;;;;;;34.50;37.80;;;28.54;38.64;95848.59;4973837;28;20012;-47
2023/07/07 07:57:52;;;;;;;;;;;34.70;37.40;;;28.48;37.91;95844.63;4959825;28;19914;-53
2023/07/07 08:00:18;;;;;;;;;;;35.00;37.20;;;28.76;37.67;95843.34;4973764;28;19948;-52
2023/07/07 08:02:44;;;;;;;;;;;35.20;36.90;;;29.07;37.69;95847.59;4973531;28;19944;-49
2023/07/07 08:05:10;;;;;;;;;;;35.40;36.50;;;28.99;36.09;95840.47;4964384;28;19955;-47
2023/07/07 08:07:36;;;;;;;;;;;35.60;36.20;;;29.17;36.23;95844.16;4973599;28;19910;-50
2023/07/07 08:10:03;;;;;;;;;;;35.60;35.80;;;29.38;35.64;95840.81;4952502;28;19916;-49
2023/07/07 08:12:30;;;;;;;;;;;35.70;35.60;;;29.34;35.68;95848.25;4968153;28;20071;-47
2023/07/07 08:14:56;;;;;;;;;;;35.80;35.30;;;29.47;35.72;95846.75;4970520;28;19917;-52
2023/07/07 08:17:22;;;;;;;;;;;35.90;35.10;;;29.62;36.88;95850.44;4961642;28;19909;-49
2023/07/07 08:19:48;;;;;;;;;;;35.90;34.60;;;29.84;36.09;95850.59;4973438;28;20300;-50
2023/07/07 08:22:21;;;;;;;;;;;35.90;34.50;;;30.00;35.32;95853.03;4964920;28;19910;-48
2023/07/07 08:24:57;;;;;;;;;;;36.00;34.40;;;29.78;36.46;95852.13;4973496;28;20027;-50
2023/07/07 08:27:26;;;;;;;;;;;36.00;34.30;;;29.86;35.52;95850.97;4967709;28;19924;-50
2023/07/07 08:29:53;;;;;;;;;;;36.20;34.20;;;29.93;36.88;95851.03;4966637;28;20387;-49
2023/07/07 08:32:22;;;;;;;;;;;36.20;34.10;;;29.84;35.51;95858.81;4973622;28;20368;-47
2023/07/07 08:34:50;;;;;;;;;;;36.30;33.80;;;29.77;35.65;95856.78;4969545;28;19916;-49
2023/07/07 08:37:17;;;;;;;;;;;36.30;33.50;;;29.88;35.22;95851.38;4956527;28;19917;-47
2023/07/07 08:39:44;;;;;;;;;;;36.30;33.40;;;29.57;36.03;95849.97;4963273;28;20506;-48
2023/07/07 08:42:34;;;;;;;;;;;36.30;33.30;;;29.85;35.38;95850.19;4968022;28;19935;-51
2023/07/07 08:45:10;;;;;;;;;;;36.30;33.20;;;30.22;35.06;95849.25;4968233;28;19909;-55
2023/07/07 08:47:41;;;;;;;;;;;36.50;33.20;;;30.40;34.56;95855.59;4967630;28;20384;-51
2023/07/07 08:50:21;;;;;;;;;;;36.60;33.00;;;30.15;36.72;95851.94;4954756;28;19963;-50
2023/07/07 08:53:44;;;;;;;;;;;36.70;32.90;;;30.10;35.68;95852.28;4959248;28;19910;-50
2023/07/07 08:56:44;;;;;;;;;;;36.80;32.70;;;30.45;34.83;95851.69;4942531;28;20009;-49
2023/07/07 08:59:13;;;;;;;;;;;36.90;32.50;;;30.82;34.66;95850.66;4959550;28;19952;-48
2023/07/07 09:02:11;;;;;;;;;;;37.00;32.30;;;31.18;33.87;95845.19;4972034;28;19909;-47
2023/07/07 09:04:49;;;;;;;;;;;37.10;32.20;;;31.51;33.61;95850.34;4968834;28;20399;-47
2023/07/07 09:07:54;;;;;;;;;;;37.40;32.10;;;31.21;34.48;95847.16;4948801;28;19968;-48
2023/07/07 09:10:51;;;;;;;;;;;37.50;32.50;;;30.93;34.21;95843.19;4951830;28;19910;-54
2023/07/07 09:13:34;;;;;;;;;;;37.60;31.50;;;31.14;33.84;95834.19;4968857;28;20296;-50
2023/07/07 09:16:21;;;;;;;;;;;37.70;31.40;;;30.95;34.18;95835.34;4962457;28;20060;-49
2023/07/07 09:18:56;;;;;;;;;;;37.70;31.20;;;30.66;34.41;95839.97;4950653;28;19921;-51
2023/07/07 09:21:42;;;;;;;;;;;37.70;31.00;;;30.88;34.42;95838.88;4966514;28;20281;-50
2023/07/07 09:24:33;;;;;;;;;;;37.70;30.80;;;30.89;34.82;95840.44;4964181;28;19910;-48
2023/07/07 09:27:11;;;;;;;;;;;37.80;30.80;;;31.46;33.06;95838.94;4977784;28;19917;-50
2023/07/07 09:29:37;;;;;;;;;;;37.80;30.80;;;31.92;32.89;95841.66;4967076;28;20000;-50
2023/07/07 09:32:03;;;;;;;;;;;37.90;30.70;;;30.88;33.56;95840.84;4970885;28;19997;-50
2023/07/07 09:34:32;;;;;;;;;;;38.10;30.70;;;30.86;33.69;95837.69;4977829;28;20365;-48
2023/07/07 09:38:00;;;;;;;;;;;38.10;30.50;;;31.69;32.99;95827.53;4964410;28;19910;-49
2023/07/07 09:40:41;;;;;;;;;;;38.10;30.40;;;31.52;32.23;95837.34;4970480;28;19914;-49
2023/07/07 09:43:46;;;;;;;;;;;38.30;30.30;;;31.21;33.19;95830.66;4970533;28;19913;-48
2023/07/07 09:46:33;;;;;;;;;;;38.40;30.10;;;31.79;32.62;95824.75;4959423;28;19910;-49
2023/07/07 09:49:13;;;;;;;;;;;38.50;30.00;;;32.04;32.53;95832.19;4971416;28;20299;-47
2023/07/07 09:52:17;;;;;;;;;;;38.50;29.90;;;32.85;31.36;95824.75;4970296;28;20338;-53
2023/07/07 09:54:45;;;;;;;;;;;38.70;29.90;;;33.26;31.46;95832.38;4973939;28;19913;-51
2023/07/07 09:57:46;;;;;;;;;;;38.90;29.80;;;33.46;30.33;95829.84;4970078;28;20001;-49
2023/07/07 10:00:19;;;;;;;;;;;39.10;29.60;;;33.12;30.52;95835.22;4973906;28;19913;-53
2023/07/07 10:02:45;;;;;;;;;;;39.30;29.90;;;32.74;31.54;95826.00;4970388;28;19921;-52
2023/07/07 10:05:20;;;;;;;;;;;39.40;29.30;;;33.20;30.48;95822.97;4960463;28;19918;-52
2023/07/07 10:07:46;;;;;;;;;;;39.50;29.20;;;33.68;31.16;95821.41;4960860;28;19910;-50
2023/07/07 10:10:14;;;;;;;;;;;39.60;29.20;;;34.11;30.88;95824.53;4957755;28;20365;-50
2023/07/07 10:12:41;;;;;;;;;;;39.80;29.10;;;33.28;30.32;95821.72;4962485;28;19956;-48
2023/07/07 10:15:30;;;;;;;;;;;39.90;28.90;;;33.36;29.92;95819.69;4972458;28;20363;-48
2023/07/07 10:18:23;;;;;;;;;;;40.00;28.90;;;33.46;30.59;95818.78;4960847;28;20439;-49
2023/07/07 10:20:51;;;;;;;;;;;40.00;28.80;;;33.35;30.46;95810.63;4974700;28;20380;-47
2023/07/07 10:23:17;;;;;;;;;;;40.20;28.80;;;33.37;30.90;95819.25;4952983;28;20288;-55
2023/07/07 10:25:44;;;;;;;;;;;40.20;28.60;;;33.86;31.73;95820.03;4975183;28;19922;-52
2023/07/07 10:28:16;;;;;;;;;;;40.40;28.50;;;33.64;29.32;95815.91;4964251;28;19954;-48
2023/07/07 10:30:45;;;;;;;;;;;40.50;28.50;;;33.92;29.88;95816.81;4969712;28;20415;-52
2023/07/07 10:33:18;;;;;;;;;;;40.60;28.30;;;34.05;29.10;95815.13;4967913;28;19987;-55
2023/07/07 10:35:44;;;;;;;;;;;40.60;28.20;;;34.25;29.13;95816.06;4975284;28;20012;-51
2023/07/07 10:38:11;;;;;;;;;;;40.80;28.20;;;34.28;29.67;95812.47;4975029;28;20000;-48
2023/07/07 10:40:41;;;;;;;;;;;40.80;28.10;;;34.12;28.23;95811.47;4959910;28;19918;-49
2023/07/07 10:43:12;;;;;;;;;;;40.90;28.00;;;34.08;29.40;95814.28;4971817;28;19910;-49
2023/07/07 10:45:42;;;;;;;;;;;41.00;28.00;;;34.01;29.62;95806.84;4967020;28;19916;-52
2023/07/07 10:48:14;;;;;;;;;;;41.00;27.70;;;34.31;28.66;95806.09;4947938;28;20373;-49
2023/07/07 10:51:32;;;;;;;;;;;41.00;27.50;;;34.71;29.28;95808.38;4974960;28;19949;-50
2023/07/07 10:54:42;;;;;;;;;;;41.20;27.50;;;34.20;28.17;95804.69;4965006;28;19917;-48
2023/07/07 10:57:40;;;;;;;;;;;41.20;27.40;;;33.09;29.48;95797.41;4974235;28;19916;-50
2023/07/07 11:00:29;;;;;;;;;;;41.20;27.30;;;33.83;27.17;95797.97;4975791;28;20013;-50
2023/07/07 11:03:34;;;;;;;;;;;41.10;27.20;;;34.71;27.59;95794.56;4971006;28;26658;-52
2023/07/07 11:06:20;;;;;;;;;;;41.30;27.20;;;34.70;27.41;95793.78;4980750;28;19960;-48
2023/07/07 11:09:35;;;;;;;;;;;41.50;26.90;;;34.58;27.40;95791.56;4974877;28;19963;-50
2023/07/07 11:12:35;;;;;;;;;;;41.70;26.90;;;34.17;27.22;95789.72;4984344;28;20353;-49
2023/07/07 11:15:22;;;;;;;;;;;41.70;26.80;;;34.78;26.66;95788.91;4944771;28;19911;-50
2023/07/07 11:18:18;;;;;;;;;;;41.80;26.70;;;35.42;26.80;95792.69;4941711;28;19916;-52
2023/07/07 11:20:51;;;;;;;;;;;42.00;26.70;;;34.74;25.75;95788.19;4974398;28;19914;-48
2023/07/07 11:23:53;;;;;;;;;;;42.20;26.60;;;34.65;26.27;95785.16;4963821;28;19909;-50
2023/07/07 11:27:04;;;;;;;;;;;42.20;26.40;;;35.25;26.20;95780.69;4958602;28;19917;-54
2023/07/07 11:30:08;;;;;;;;;;;42.30;26.20;;;35.11;24.55;95778.19;4957838;28;19914;-49
2023/07/07 11:33:04;;;;;;;;;;;42.50;26.10;;;35.26;25.33;95781.47;4974211;28;19910;-49
2023/07/07 11:35:56;;;;;;;;;;;42.60;26.00;;;35.32;26.22;95768.72;4950528;28;20266;-53
2023/07/07 11:38:56;;;;;;;;;;;42.80;25.80;;;35.05;24.49;95774.31;4974137;28;19949;-48
2023/07/07 11:42:06;;;;;;;;;;;42.90;25.60;;;35.37;25.09;95769.03;4954426;28;19921;-48